createdAt,value
2023-03-30T00:00:26.937Z,40.81
2023-03-30T00:04:27.314Z,40.94
2023-03-30T00:08:27.212Z,41.30
2023-03-30T00:12:27.357Z,41.11
2023-03-30T00:16:27.537Z,41.51
2023-03-30T00:20:27.679Z,41.32
2023-03-30T00:24:27.771Z,41.38
2023-03-30T00:28:27.922Z,41.64
2023-03-30T00:32:28.138Z,41.23
2023-03-30T00:36:28.268Z,41.01
2023-03-30T00:40:28.452Z,41.04
2023-03-30T00:44:28.641Z,41.26
2023-03-30T00:48:28.778Z,41.04
2023-03-30T00:52:28.930Z,40.96
2023-03-30T00:56:29.084Z,40.72
2023-03-30T01:00:29.271Z,40.37
2023-03-30T01:04:29.483Z,40.87
2023-03-30T01:08:29.657Z,41.08
2023-03-30T01:12:29.851Z,41.28
2023-03-30T01:16:30.016Z,41.13
2023-03-30T01:20:30.188Z,40.98
2023-03-30T01:24:30.373Z,40.95
2023-03-30T01:28:30.579Z,40.78
2023-03-30T01:32:30.741Z,40.50
2023-03-30T01:36:30.968Z,40.42
2023-03-30T01:40:31.132Z,40.99
2023-03-30T01:44:31.298Z,40.71
2023-03-30T01:48:31.473Z,40.81
2023-03-30T01:52:31.646Z,40.64
2023-03-30T01:56:31.822Z,40.55
2023-03-30T02:00:31.972Z,40.65
2023-03-30T02:04:32.173Z,40.54
2023-03-30T02:08:32.321Z,40.53
2023-03-30T02:12:32.509Z,40.39
2023-03-30T02:16:32.762Z,39.76
2023-03-30T02:20:32.866Z,40.12
2023-03-30T02:24:33.019Z,40.33
2023-03-30T02:28:33.221Z,40.58
2023-03-30T02:32:33.424Z,40.56
2023-03-30T02:36:33.603Z,40.69
2023-03-30T02:40:33.783Z,40.54
2023-03-30T02:44:33.930Z,40.80
2023-03-30T02:48:34.101Z,40.67
2023-03-30T02:52:34.277Z,40.70
2023-03-30T02:56:34.463Z,40.79
2023-03-30T03:00:34.644Z,40.61
2023-03-30T03:04:34.798Z,40.75
2023-03-30T03:08:34.959Z,40.90
2023-03-30T03:12:35.127Z,40.65
2023-03-30T03:16:35.359Z,40.88
2023-03-30T03:20:35.474Z,40.94
2023-03-30T03:24:35.614Z,40.91
2023-03-30T03:28:35.824Z,40.65
2023-03-30T03:32:36.057Z,40.85
2023-03-30T03:36:36.179Z,40.90
2023-03-30T03:40:36.366Z,40.91
2023-03-30T03:44:36.585Z,40.92
2023-03-30T03:48:36.720Z,41.10
2023-03-30T03:52:36.905Z,41.03
2023-03-30T03:56:37.150Z,40.97
2023-03-30T04:00:37.321Z,40.72
2023-03-30T04:04:37.468Z,40.89
2023-03-30T04:08:37.638Z,40.85
2023-03-30T04:12:37.808Z,40.88
2023-03-30T04:16:38.012Z,40.79
2023-03-30T04:20:38.163Z,41.06
2023-03-30T04:24:38.360Z,40.64
2023-03-30T04:28:38.514Z,40.94
2023-03-30T04:32:38.520Z,40.94
2023-03-30T04:36:38.417Z,40.74
2023-03-30T04:40:38.358Z,40.64
2023-03-30T04:44:38.255Z,40.71
2023-03-30T04:48:38.248Z,40.26
2023-03-30T04:52:38.164Z,41.64
2023-03-30T04:56:38.107Z,43.29
2023-03-30T05:00:38.053Z,44.65
2023-03-30T05:04:37.971Z,45.82
2023-03-30T05:08:39.905Z,46.35
2023-03-30T05:12:37.865Z,47.26
2023-03-30T05:16:37.960Z,48.01
2023-03-30T05:20:37.774Z,49.36
2023-03-30T05:24:37.639Z,49.41
2023-03-30T05:28:37.612Z,49.89
2023-03-30T05:32:37.527Z,50.36
2023-03-30T05:36:37.447Z,48.21
2023-03-30T05:40:38.028Z,48.73
2023-03-30T05:44:38.082Z,49.02
2023-03-30T05:48:37.309Z,49.87
2023-03-30T05:52:37.508Z,48.68
2023-03-30T05:56:37.549Z,46.82
2023-03-30T06:00:37.572Z,48.29
2023-03-30T06:04:37.164Z,49.35
2023-03-30T06:08:36.998Z,49.62
2023-03-30T06:12:36.964Z,49.60
2023-03-30T06:16:37.104Z,49.99
2023-03-30T06:20:36.844Z,51.19
2023-03-30T06:24:36.744Z,52.83
2023-03-30T06:28:44.045Z,52.96
2023-03-30T06:32:36.717Z,53.27
2023-03-30T06:36:45.003Z,54.16
2023-03-30T06:40:38.068Z,55.29
2023-03-30T06:44:37.080Z,55.72
2023-03-30T06:48:36.811Z,54.41
2023-03-30T06:52:36.590Z,53.68
2023-03-30T06:56:36.596Z,53.74
2023-03-30T07:00:36.427Z,53.49
2023-03-30T07:04:36.591Z,53.91
2023-03-30T07:08:36.501Z,54.16
2023-03-30T07:12:36.428Z,54.90
2023-03-30T07:16:36.473Z,55.48
2023-03-30T07:20:36.462Z,55.37
2023-03-30T07:24:36.497Z,54.86
2023-03-30T07:28:36.596Z,54.77
2023-03-30T07:32:36.813Z,55.84
2023-03-30T07:36:36.620Z,55.97
2023-03-30T07:40:37.132Z,54.90
2023-03-30T07:44:37.077Z,53.08
2023-03-30T07:48:37.174Z,53.24
2023-03-30T07:52:37.112Z,54.11
2023-03-30T07:56:36.538Z,54.83
2023-03-30T08:00:36.595Z,54.91
2023-03-30T08:04:36.544Z,55.14
2023-03-30T08:08:36.573Z,55.43
2023-03-30T08:12:36.322Z,56.32
2023-03-30T08:16:36.316Z,56.70
2023-03-30T08:20:36.618Z,56.32
2023-03-30T08:24:45.615Z,55.61
2023-03-30T08:28:36.076Z,56.03
2023-03-30T08:32:36.149Z,56.39
2023-03-30T08:36:36.130Z,56.60
2023-03-30T08:40:36.144Z,57.54
2023-03-30T08:44:35.808Z,58.04
2023-03-30T08:48:36.147Z,57.61
2023-03-30T08:52:36.129Z,58.21
2023-03-30T08:56:35.657Z,56.75
2023-03-30T09:00:35.495Z,57.08
2023-03-30T09:04:35.467Z,57.35
2023-03-30T09:08:36.166Z,57.22
2023-03-30T09:12:35.261Z,56.81
2023-03-30T09:16:42.689Z,56.36
2023-03-30T09:20:35.162Z,57.23
2023-03-30T09:24:35.061Z,57.16
2023-03-30T09:28:35.000Z,56.04
2023-03-30T09:32:34.959Z,57.06
2023-03-30T09:36:35.179Z,56.94
2023-03-30T09:40:35.112Z,55.21
2023-03-30T09:44:35.172Z,56.51
2023-03-30T09:48:35.693Z,56.14
2023-03-30T09:52:35.704Z,56.03
2023-03-30T09:56:35.656Z,55.45
2023-03-30T10:00:35.586Z,55.49
2023-03-30T10:04:36.187Z,54.97
2023-03-30T10:08:35.738Z,55.23
2023-03-30T10:12:36.185Z,56.16
2023-03-30T10:16:36.015Z,56.77
2023-03-30T10:20:35.956Z,56.87
2023-03-30T10:24:36.205Z,56.13
2023-03-30T10:28:35.800Z,57.14
2023-03-30T10:32:35.749Z,57.64
2023-03-30T10:36:35.616Z,57.69
2023-03-30T10:40:35.696Z,57.95
2023-03-30T10:44:35.437Z,56.37
2023-03-30T10:48:35.380Z,56.67
2023-03-30T10:52:37.808Z,56.69
2023-03-30T10:56:36.697Z,56.29
2023-03-30T11:00:35.137Z,54.94
2023-03-30T11:04:35.055Z,55.38
2023-03-30T11:08:35.214Z,54.75
2023-03-30T11:12:34.941Z,56.38
2023-03-30T11:16:34.974Z,55.55
2023-03-30T11:20:35.219Z,56.21
2023-03-30T11:24:35.226Z,55.88
2023-03-30T11:28:34.864Z,54.96
2023-03-30T11:32:35.245Z,53.33
2023-03-30T11:36:35.230Z,53.75
2023-03-30T11:40:35.189Z,53.99
2023-03-30T11:44:34.728Z,54.62
2023-03-30T11:48:34.668Z,54.50
2023-03-30T11:52:34.688Z,54.90
2023-03-30T11:56:34.667Z,53.95
2023-03-30T12:00:34.717Z,53.59
2023-03-30T12:04:36.342Z,53.39
2023-03-30T12:08:34.560Z,53.29
2023-03-30T12:12:34.508Z,54.13
2023-03-30T12:16:34.776Z,53.49
2023-03-30T12:20:34.367Z,53.91
2023-03-30T12:24:34.719Z,54.57
2023-03-30T12:28:54.037Z,53.55
2023-03-30T12:32:35.266Z,54.57
2023-03-30T12:36:34.140Z,54.92
2023-03-30T12:40:33.987Z,54.67
2023-03-30T12:44:33.996Z,55.02
2023-03-30T12:48:33.932Z,54.73
2023-03-30T12:52:33.900Z,54.67
2023-03-30T12:56:33.890Z,54.98
2023-03-30T13:00:33.896Z,55.72
2023-03-30T13:04:33.990Z,55.23
2023-03-30T13:08:33.979Z,54.36
2023-03-30T13:12:33.990Z,53.38
2023-03-30T13:16:34.040Z,52.62
2023-03-30T13:20:34.143Z,52.40
2023-03-30T13:24:34.237Z,52.75
2023-03-30T13:28:34.172Z,54.11
2023-03-30T13:32:34.328Z,54.79
2023-03-30T13:36:34.300Z,54.37
2023-03-30T13:40:42.001Z,54.95
2023-03-30T13:44:35.264Z,55.39
2023-03-30T13:48:34.144Z,55.34
2023-03-30T13:52:34.084Z,54.69
2023-03-30T13:56:34.020Z,54.87
2023-03-30T14:00:34.254Z,55.77
2023-03-30T14:04:33.866Z,55.49
2023-03-30T14:08:34.286Z,56.04
2023-03-30T14:12:33.792Z,55.71
2023-03-30T14:16:34.326Z,55.97
2023-03-30T14:20:33.817Z,56.67
2023-03-30T14:24:33.825Z,57.09
2023-03-30T14:28:33.875Z,56.97
2023-03-30T14:32:33.981Z,56.77
2023-03-30T14:36:33.956Z,57.24
2023-03-30T14:40:34.009Z,57.43
2023-03-30T14:44:34.083Z,57.09
2023-03-30T14:48:34.145Z,56.80
2023-03-30T14:52:34.189Z,55.75
2023-03-30T14:56:34.268Z,57.00
2023-03-30T15:00:34.316Z,57.44
2023-03-30T15:04:34.403Z,57.44
2023-03-30T15:08:34.370Z,57.07
2023-03-30T15:12:34.398Z,56.77
2023-03-30T15:16:34.493Z,57.83
2023-03-30T15:20:34.484Z,57.65
2023-03-30T15:24:34.442Z,57.61
2023-03-30T15:28:34.423Z,57.19
2023-03-30T15:32:34.457Z,56.74
2023-03-30T15:36:34.407Z,56.82
2023-03-30T15:40:34.451Z,57.06
2023-03-30T15:44:34.430Z,57.28
2023-03-30T15:48:34.499Z,57.21
2023-03-30T15:52:34.514Z,57.65
2023-03-30T15:56:34.559Z,57.28
2023-03-30T16:00:34.589Z,57.18
2023-03-30T16:04:34.686Z,57.07
2023-03-30T16:08:34.616Z,57.29
2023-03-30T16:12:34.665Z,57.75
2023-03-30T16:16:34.844Z,57.82
2023-03-30T16:20:34.769Z,57.62
2023-03-30T16:24:34.828Z,57.17
2023-03-30T16:28:34.831Z,57.86
2023-03-30T16:32:35.847Z,58.00
2023-03-30T16:36:34.927Z,57.75
2023-03-30T16:40:34.975Z,57.58
2023-03-30T16:44:35.030Z,56.89
2023-03-30T16:48:35.026Z,56.62
2023-03-30T16:52:35.101Z,57.44
2023-03-30T16:56:35.182Z,57.79
2023-03-30T17:00:35.245Z,57.52
2023-03-30T17:04:35.361Z,57.43
2023-03-30T17:08:35.532Z,57.03
2023-03-30T17:12:35.696Z,54.38
2023-03-30T17:16:36.356Z,54.92
2023-03-30T17:20:35.624Z,54.83
2023-03-30T17:24:35.575Z,54.74
2023-03-30T17:28:35.584Z,54.27
2023-03-30T17:32:35.568Z,53.75
2023-03-30T17:36:35.523Z,53.85
2023-03-30T17:40:35.430Z,51.93
2023-03-30T17:44:35.623Z,52.39
2023-03-30T17:48:35.563Z,51.85
2023-03-30T17:52:35.515Z,51.62
2023-03-30T17:56:35.508Z,51.37
2023-03-30T18:00:35.425Z,51.20
2023-03-30T18:04:35.353Z,50.89
2023-03-30T18:08:35.319Z,50.58
2023-03-30T18:12:35.322Z,49.95
2023-03-30T18:16:35.279Z,50.21
2023-03-30T18:20:35.187Z,49.93
2023-03-30T18:24:35.178Z,49.72
2023-03-30T18:28:35.167Z,49.21
2023-03-30T18:32:46.202Z,49.16
2023-03-30T18:36:36.322Z,49.10
2023-03-30T18:40:35.241Z,48.79
2023-03-30T18:44:35.440Z,48.77
2023-03-30T18:48:35.553Z,49.01
2023-03-30T18:52:35.888Z,48.49
2023-03-30T18:56:36.118Z,48.75
2023-03-30T19:00:35.772Z,48.52
2023-03-30T19:04:35.735Z,48.28
2023-03-30T19:08:35.589Z,47.97
2023-03-30T19:12:35.550Z,48.28
2023-03-30T19:16:35.526Z,47.95
2023-03-30T19:20:35.153Z,47.97
2023-03-30T19:24:35.102Z,47.98
2023-03-30T19:28:35.227Z,47.61
2023-03-30T19:32:35.351Z,47.67
2023-03-30T19:36:35.468Z,47.82
2023-03-30T19:40:35.457Z,47.45
2023-03-30T19:44:35.425Z,47.50
2023-03-30T19:48:35.458Z,47.34
2023-03-30T19:52:35.557Z,47.16
2023-03-30T19:56:35.662Z,47.23
2023-03-30T20:00:35.835Z,47.02
2023-03-30T20:04:35.876Z,47.06
2023-03-30T20:08:35.829Z,47.21
2023-03-30T20:12:35.789Z,46.91
2023-03-30T20:16:35.824Z,46.83
2023-03-30T20:20:35.730Z,46.84
2023-03-30T20:24:35.739Z,46.82
2023-03-30T20:28:35.680Z,46.93
2023-03-30T20:32:35.809Z,46.69
2023-03-30T20:36:35.653Z,46.67
2023-03-30T20:40:35.637Z,46.90
2023-03-30T20:44:35.617Z,46.39
2023-03-30T20:48:35.579Z,46.75
2023-03-30T20:52:35.631Z,46.56
2023-03-30T20:56:35.603Z,46.47
2023-03-30T21:00:35.551Z,46.60
2023-03-30T21:04:35.621Z,46.23
2023-03-30T21:08:35.583Z,46.19
2023-03-30T21:12:35.552Z,46.20
2023-03-30T21:16:35.554Z,45.83
2023-03-30T21:20:35.494Z,45.86
2023-03-30T21:24:35.448Z,45.84
2023-03-30T21:28:35.441Z,45.79
2023-03-30T21:32:35.443Z,45.64
2023-03-30T21:36:35.522Z,45.75
2023-03-30T21:40:35.379Z,45.47
2023-03-30T21:44:35.392Z,45.39
2023-03-30T21:48:35.336Z,45.31
2023-03-30T21:52:35.332Z,45.55
2023-03-30T21:56:35.337Z,45.17
2023-03-30T22:00:35.321Z,45.28
2023-03-30T22:04:35.300Z,45.05
2023-03-30T22:08:35.366Z,45.12
2023-03-30T22:12:35.280Z,44.95
2023-03-30T22:16:35.374Z,44.83
2023-03-30T22:20:35.269Z,44.60
2023-03-30T22:24:35.263Z,44.68
2023-03-30T22:28:35.247Z,44.48
2023-03-30T22:32:35.315Z,44.68
2023-03-30T22:36:35.256Z,44.44
2023-03-30T22:40:35.252Z,44.45
2023-03-30T22:44:35.267Z,44.20
2023-03-30T22:48:35.236Z,44.20
2023-03-30T22:52:35.284Z,44.18
2023-03-30T22:56:35.459Z,44.09
2023-03-30T23:00:35.310Z,44.01
2023-03-30T23:04:35.347Z,43.96
2023-03-30T23:08:35.353Z,43.53
2023-03-30T23:12:35.378Z,43.63
2023-03-30T23:16:35.434Z,43.41
2023-03-30T23:20:35.438Z,43.15
2023-03-30T23:24:35.456Z,43.76
2023-03-30T23:28:35.523Z,43.36
2023-03-30T23:32:35.589Z,42.90
2023-03-30T23:36:35.634Z,42.80
2023-03-30T23:40:35.682Z,42.50
2023-03-30T23:44:35.764Z,42.41
2023-03-30T23:48:35.842Z,42.64
2023-03-30T23:52:35.920Z,42.42
2023-03-30T23:56:36.008Z,42.51
